sensor_id;sensor_type;location;lat;lon;timestamp;pressure;altitude;pressure_sealevel;temperature;humidity
45467;BME280;31212;49.734;8.490;2023-04-05T00:01:47;101157.56;;;0.51;72.14
45467;BME280;31212;49.734;8.490;2023-04-05T00:04:15;101152.75;;;0.41;72.42
45467;BME280;31212;49.734;8.490;2023-04-05T00:06:45;101175.16;;;0.30;72.84
45467;BME280;31212;49.734;8.490;2023-04-05T00:09:16;101180.16;;;0.28;73.28
45467;BME280;31212;49.734;8.490;2023-04-05T00:11:45;101183.59;;;0.29;73.51
45467;BME280;31212;49.734;8.490;2023-04-05T00:14:11;101178.56;;;0.30;73.70
45467;BME280;31212;49.734;8.490;2023-04-05T00:16:38;101169.41;;;0.34;73.78
45467;BME280;31212;49.734;8.490;2023-04-05T00:19:05;101147.03;;;0.30;73.38
45467;BME280;31212;49.734;8.490;2023-04-05T00:21:31;101144.41;;;0.28;73.59
45467;BME280;31212;49.734;8.490;2023-04-05T00:23:59;101138.16;;;0.23;73.84
45467;BME280;31212;49.734;8.490;2023-04-05T00:26:25;101167.91;;;0.23;74.14
45467;BME280;31212;49.734;8.490;2023-04-05T00:28:57;101165.56;;;0.11;74.30
45467;BME280;31212;49.734;8.490;2023-04-05T00:31:23;101174.31;;;0.01;74.95
45467;BME280;31212;49.734;8.490;2023-04-05T00:33:50;101188.16;;;-0.10;75.48
45467;BME280;31212;49.734;8.490;2023-04-05T00:36:19;101195.94;;;-0.22;75.91
45467;BME280;31212;49.734;8.490;2023-04-05T00:38:46;101200.53;;;-0.17;76.36
45467;BME280;31212;49.734;8.490;2023-04-05T00:41:14;101198.28;;;-0.12;76.34
45467;BME280;31212;49.734;8.490;2023-04-05T00:43:41;101187.34;;;-0.24;76.37
45467;BME280;31212;49.734;8.490;2023-04-05T00:46:08;101185.56;;;-0.25;76.52
45467;BME280;31212;49.734;8.490;2023-04-05T00:48:36;101182.63;;;-0.31;76.76
45467;BME280;31212;49.734;8.490;2023-04-05T00:51:03;101191.19;;;-0.31;76.87
45467;BME280;31212;49.734;8.490;2023-04-05T00:53:33;101171.22;;;-0.23;76.79
45467;BME280;31212;49.734;8.490;2023-04-05T00:56:00;101165.16;;;-0.25;76.67
45467;BME280;31212;49.734;8.490;2023-04-05T00:58:28;101156.97;;;-0.20;76.61
45467;BME280;31212;49.734;8.490;2023-04-05T01:01:00;101154.16;;;-0.24;76.50
45467;BME280;31212;49.734;8.490;2023-04-05T01:03:31;101147.81;;;-0.31;76.85
45467;BME280;31212;49.734;8.490;2023-04-05T01:06:08;101143.97;;;-0.24;76.75
45467;BME280;31212;49.734;8.490;2023-04-05T01:08:41;101120.53;;;-0.32;76.03
45467;BME280;31212;49.734;8.490;2023-04-05T01:11:11;101116.84;;;-0.37;76.19
45467;BME280;31212;49.734;8.490;2023-04-05T01:13:38;101120.47;;;-0.33;76.29
45467;BME280;31212;49.734;8.490;2023-04-05T01:16:05;101114.03;;;-0.27;76.17
45467;BME280;31212;49.734;8.490;2023-04-05T01:18:33;101101.78;;;-0.32;75.86
45467;BME280;31212;49.734;8.490;2023-04-05T01:21:11;101074.94;;;-0.41;75.16
45467;BME280;31212;49.734;8.490;2023-04-05T01:23:44;101079.25;;;-0.40;75.57
45467;BME280;31212;49.734;8.490;2023-04-05T01:26:32;101078.66;;;-0.36;75.90
45467;BME280;31212;49.734;8.490;2023-04-05T01:29:37;101084.38;;;-0.40;75.94
45467;BME280;31212;49.734;8.490;2023-04-05T01:32:09;101068.91;;;-0.43;75.71
45467;BME280;31212;49.734;8.490;2023-04-05T01:34:39;101071.78;;;-0.52;75.76
45467;BME280;31212;49.734;8.490;2023-04-05T01:37:08;101061.41;;;-0.55;75.59
45467;BME280;31212;49.734;8.490;2023-04-05T01:39:36;101071.97;;;-0.63;75.99
45467;BME280;31212;49.734;8.490;2023-04-05T01:42:03;101075.59;;;-0.73;76.08
45467;BME280;31212;49.734;8.490;2023-04-05T01:44:30;101069.34;;;-0.78;76.26
45467;BME280;31212;49.734;8.490;2023-04-05T01:46:58;101072.19;;;-0.74;76.25
45467;BME280;31212;49.734;8.490;2023-04-05T01:49:24;101073.97;;;-0.73;76.43
45467;BME280;31212;49.734;8.490;2023-04-05T01:51:51;101078.41;;;-0.83;76.25
45467;BME280;31212;49.734;8.490;2023-04-05T01:54:17;101071.50;;;-0.71;76.18
45467;BME280;31212;49.734;8.490;2023-04-05T01:56:44;101072.63;;;-0.81;76.31
45467;BME280;31212;49.734;8.490;2023-04-05T01:59:10;101080.06;;;-0.84;76.95
45467;BME280;31212;49.734;8.490;2023-04-05T02:01:37;101081.97;;;-0.95;76.92
45467;BME280;31212;49.734;8.490;2023-04-05T02:04:05;101097.50;;;-1.05;77.23
45467;BME280;31212;49.734;8.490;2023-04-05T02:06:31;101116.03;;;-1.08;77.95
45467;BME280;31212;49.734;8.490;2023-04-05T02:09:00;101119.19;;;-1.12;78.33
45467;BME280;31212;49.734;8.490;2023-04-05T02:11:27;101114.78;;;-1.14;78.09
45467;BME280;31212;49.734;8.490;2023-04-05T02:13:56;101109.19;;;-1.22;77.95
45467;BME280;31212;49.734;8.490;2023-04-05T02:16:22;101122.22;;;-1.17;78.34
45467;BME280;31212;49.734;8.490;2023-04-05T02:18:50;101118.88;;;-1.16;78.48
45467;BME280;31212;49.734;8.490;2023-04-05T02:21:18;101106.66;;;-1.22;78.10
45467;BME280;31212;49.734;8.490;2023-04-05T02:23:46;101100.19;;;-1.30;77.92
45467;BME280;31212;49.734;8.490;2023-04-05T02:26:12;101107.66;;;-1.33;78.44
45467;BME280;31212;49.734;8.490;2023-04-05T02:28:38;101127.44;;;-1.29;78.71
45467;BME280;31212;49.734;8.490;2023-04-05T02:31:08;101117.34;;;-1.41;78.42
45467;BME280;31212;49.734;8.490;2023-04-05T02:33:36;101107.53;;;-1.35;78.22
45467;BME280;31212;49.734;8.490;2023-04-05T02:36:03;101113.50;;;-1.21;78.51
45467;BME280;31212;49.734;8.490;2023-04-05T02:38:32;101097.91;;;-1.12;77.79
45467;BME280;31212;49.734;8.490;2023-04-05T02:40:58;101087.38;;;-1.32;77.86
45467;BME280;31212;49.734;8.490;2023-04-05T02:43:25;101085.34;;;-1.38;78.21
45467;BME280;31212;49.734;8.490;2023-04-05T02:45:52;101086.81;;;-1.41;77.86
45467;BME280;31212;49.734;8.490;2023-04-05T02:48:19;101099.03;;;-1.49;78.59
45467;BME280;31212;49.734;8.490;2023-04-05T02:50:46;101111.97;;;-1.46;78.67
45467;BME280;31212;49.734;8.490;2023-04-05T02:53:14;101119.91;;;-1.55;79.18
45467;BME280;31212;49.734;8.490;2023-04-05T02:55:42;101127.56;;;-1.55;79.63
45467;BME280;31212;49.734;8.490;2023-04-05T02:58:08;101136.97;;;-1.54;79.75
45467;BME280;31212;49.734;8.490;2023-04-05T03:00:44;101151.56;;;-1.64;80.08
45467;BME280;31212;49.734;8.490;2023-04-05T03:03:11;101156.25;;;-1.57;80.31
45467;BME280;31212;49.734;8.490;2023-04-05T03:05:41;101157.53;;;-1.50;80.32
45467;BME280;31212;49.734;8.490;2023-04-05T03:08:08;101149.69;;;-1.67;80.30
45467;BME280;31212;49.734;8.490;2023-04-05T03:10:50;101155.53;;;-1.81;80.71
45467;BME280;31212;49.734;8.490;2023-04-05T03:13:16;101166.41;;;-1.84;81.10
45467;BME280;31212;49.734;8.490;2023-04-05T03:15:44;101170.78;;;-1.95;81.18
45467;BME280;31212;49.734;8.490;2023-04-05T03:18:14;101174.13;;;-1.82;81.77
45467;BME280;31212;49.734;8.490;2023-04-05T03:20:42;101158.75;;;-1.84;81.77
45467;BME280;31212;49.734;8.490;2023-04-05T03:23:16;101151.53;;;-1.91;81.44
45467;BME280;31212;49.734;8.490;2023-04-05T03:25:44;101151.03;;;-1.86;81.23
45467;BME280;31212;49.734;8.490;2023-04-05T03:28:14;101136.50;;;-2.00;82.17
45467;BME280;31212;49.734;8.490;2023-04-05T03:30:45;101143.69;;;-1.94;81.96
45467;BME280;31212;49.734;8.490;2023-04-05T03:33:16;101134.94;;;-2.11;81.70
45467;BME280;31212;49.734;8.490;2023-04-05T03:35:46;101138.69;;;-2.06;82.29
45467;BME280;31212;49.734;8.490;2023-04-05T03:38:14;101148.28;;;-2.02;82.74
45467;BME280;31212;49.734;8.490;2023-04-05T03:40:50;101138.69;;;-2.06;82.13
45467;BME280;31212;49.734;8.490;2023-04-05T03:43:18;101143.00;;;-2.05;82.40
45467;BME280;31212;49.734;8.490;2023-04-05T03:45:46;101138.44;;;-2.09;82.05
45467;BME280;31212;49.734;8.490;2023-04-05T03:48:12;101144.53;;;-2.07;82.05
45467;BME280;31212;49.734;8.490;2023-04-05T03:50:44;101140.63;;;-2.15;82.23
45467;BME280;31212;49.734;8.490;2023-04-05T03:53:11;101155.41;;;-2.10;82.30
45467;BME280;31212;49.734;8.490;2023-04-05T03:55:37;101143.75;;;-2.06;82.62
45467;BME280;31212;49.734;8.490;2023-04-05T03:58:05;101137.38;;;-2.13;82.65
45467;BME280;31212;49.734;8.490;2023-04-05T04:00:36;101134.06;;;-2.12;82.86
45467;BME280;31212;49.734;8.490;2023-04-05T04:03:11;101131.78;;;-2.21;82.73
45467;BME280;31212;49.734;8.490;2023-04-05T04:05:41;101135.09;;;-2.22;82.69
45467;BME280;31212;49.734;8.490;2023-04-05T04:08:09;101123.19;;;-2.23;82.71
45467;BME280;31212;49.734;8.490;2023-04-05T04:10:36;101117.09;;;-2.25;82.68
45467;BME280;31212;49.734;8.490;2023-04-05T04:13:10;101117.97;;;-2.24;82.76
45467;BME280;31212;49.734;8.490;2023-04-05T04:15:38;101123.63;;;-2.28;82.75
45467;BME280;31212;49.734;8.490;2023-04-05T04:18:14;101129.69;;;-2.40;82.87
45467;BME280;31212;49.734;8.490;2023-04-05T04:21:03;101134.91;;;-2.25;83.28
45467;BME280;31212;49.734;8.490;2023-04-05T04:23:49;101128.56;;;-2.18;83.10
45467;BME280;31212;49.734;8.490;2023-04-05T04:26:42;101110.81;;;-2.30;82.72
45467;BME280;31212;49.734;8.490;2023-04-05T04:29:16;101111.50;;;-2.32;83.01
45467;BME280;31212;49.734;8.490;2023-04-05T04:32:03;101116.59;;;-2.32;82.97
45467;BME280;31212;49.734;8.490;2023-04-05T04:34:46;101103.09;;;-2.31;82.75
45467;BME280;31212;49.734;8.490;2023-04-05T04:37:54;101106.13;;;-2.37;82.88
45467;BME280;31212;49.734;8.490;2023-04-05T04:40:46;101107.47;;;-2.42;83.16
45467;BME280;31212;49.734;8.490;2023-04-05T04:43:26;101116.34;;;-2.49;82.80
45467;BME280;31212;49.734;8.490;2023-04-05T04:46:15;101128.59;;;-2.43;83.67
45467;BME280;31212;49.734;8.490;2023-04-05T04:49:03;101129.41;;;-2.44;83.16
45467;BME280;31212;49.734;8.490;2023-04-05T04:51:30;101120.75;;;-2.46;83.38
45467;BME280;31212;49.734;8.490;2023-04-05T04:53:57;101126.16;;;-2.42;83.70
45467;BME280;31212;49.734;8.490;2023-04-05T04:56:23;101127.75;;;-2.30;83.28
45467;BME280;31212;49.734;8.490;2023-04-05T04:58:53;101126.75;;;-2.32;83.62
45467;BME280;31212;49.734;8.490;2023-04-05T05:01:20;101132.38;;;-2.25;83.16
45467;BME280;31212;49.734;8.490;2023-04-05T05:03:47;101132.75;;;-2.32;83.56
45467;BME280;31212;49.734;8.490;2023-04-05T05:06:20;101153.72;;;-2.23;83.99
45467;BME280;31212;49.734;8.490;2023-04-05T05:08:47;101155.97;;;-2.14;83.97
45467;BME280;31212;49.734;8.490;2023-04-05T05:11:14;101157.75;;;-2.13;83.90
45467;BME280;31212;49.734;8.490;2023-04-05T05:13:40;101169.13;;;-2.08;84.05
45467;BME280;31212;49.734;8.490;2023-04-05T05:16:09;101171.66;;;-2.08;84.27
45467;BME280;31212;49.734;8.490;2023-04-05T05:18:35;101170.47;;;-2.13;84.79
45467;BME280;31212;49.734;8.490;2023-04-05T05:21:04;101177.00;;;-2.16;84.96
45467;BME280;31212;49.734;8.490;2023-04-05T05:23:32;101173.78;;;-2.14;85.09
45467;BME280;31212;49.734;8.490;2023-04-05T05:25:58;101183.00;;;-2.03;85.15
45467;BME280;31212;49.734;8.490;2023-04-05T05:28:26;101177.94;;;-1.89;84.79
45467;BME280;31212;49.734;8.490;2023-04-05T05:30:52;101168.25;;;-1.81;83.82
45467;BME280;31212;49.734;8.490;2023-04-05T05:33:20;101146.81;;;-1.72;83.89
45467;BME280;31212;49.734;8.490;2023-04-05T05:35:47;101126.97;;;-1.64;83.26
45467;BME280;31212;49.734;8.490;2023-04-05T05:38:13;101103.78;;;-1.68;82.87
45467;BME280;31212;49.734;8.490;2023-04-05T05:40:42;101090.34;;;-1.66;82.30
45467;BME280;31212;49.734;8.490;2023-04-05T05:43:09;101075.28;;;-1.63;81.83
45467;BME280;31212;49.734;8.490;2023-04-05T05:45:36;101066.25;;;-1.44;81.41
45467;BME280;31212;49.734;8.490;2023-04-05T05:48:03;101052.66;;;-1.30;80.46
45467;BME280;31212;49.734;8.490;2023-04-05T05:50:31;101036.31;;;-1.20;80.40
45467;BME280;31212;49.734;8.490;2023-04-05T05:52:58;101023.75;;;-1.17;79.73
45467;BME280;31212;49.734;8.490;2023-04-05T05:55:24;101019.91;;;-1.10;79.25
45467;BME280;31212;49.734;8.490;2023-04-05T05:57:52;100990.91;;;-0.97;78.50
45467;BME280;31212;49.734;8.490;2023-04-05T06:00:19;100985.34;;;-0.62;77.56
45467;BME280;31212;49.734;8.490;2023-04-05T06:02:48;100960.16;;;0.06;76.72
45467;BME280;31212;49.734;8.490;2023-04-05T06:05:16;100910.50;;;0.65;74.84
45467;BME280;31212;49.734;8.490;2023-04-05T06:07:43;100866.72;;;1.28;73.63
45467;BME280;31212;49.734;8.490;2023-04-05T06:10:10;100767.38;;;1.37;71.54
45467;BME280;31212;49.734;8.490;2023-04-05T06:12:36;100667.25;;;1.47;69.18
45467;BME280;31212;49.734;8.490;2023-04-05T06:15:05;100621.38;;;2.35;67.68
45467;BME280;31212;49.734;8.490;2023-04-05T06:17:32;100549.69;;;2.37;65.73
45467;BME280;31212;49.734;8.490;2023-04-05T06:20:07;100531.22;;;2.68;65.25
45467;BME280;31212;49.734;8.490;2023-04-05T06:22:34;100552.25;;;4.08;64.16
45467;BME280;31212;49.734;8.490;2023-04-05T06:25:00;100452.47;;;5.14;61.18
45467;BME280;31212;49.734;8.490;2023-04-05T06:27:27;100341.69;;;5.86;58.33
45467;BME280;31212;49.734;8.490;2023-04-05T06:29:53;100229.25;;;6.87;55.38
45467;BME280;31212;49.734;8.490;2023-04-05T06:32:21;100179.53;;;7.70;52.73
45467;BME280;31212;49.734;8.490;2023-04-05T06:34:48;100090.78;;;7.66;51.53
45467;BME280;31212;49.734;8.490;2023-04-05T06:37:14;99997.44;;;7.29;50.37
45467;BME280;31212;49.734;8.490;2023-04-05T06:39:41;100002.47;;;8.23;49.00
45467;BME280;31212;49.734;8.490;2023-04-05T06:42:07;100027.81;;;8.80;48.40
45467;BME280;31212;49.734;8.490;2023-04-05T06:44:41;99917.38;;;8.68;47.10
45467;BME280;31212;49.734;8.490;2023-04-05T06:47:08;99903.31;;;8.10;47.38
45467;BME280;31212;49.734;8.490;2023-04-05T06:49:35;100007.28;;;9.52;46.86
45467;BME280;31212;49.734;8.490;2023-04-05T06:52:02;99894.75;;;10.55;44.41
45467;BME280;31212;49.734;8.490;2023-04-05T06:54:30;99883.91;;;11.19;43.26
45467;BME280;31212;49.734;8.490;2023-04-05T06:56:56;99851.22;;;10.94;42.49
45467;BME280;31212;49.734;8.490;2023-04-05T06:59:23;99805.50;;;11.67;41.24
45467;BME280;31212;49.734;8.490;2023-04-05T07:01:50;99752.19;;;10.18;42.12
45467;BME280;31212;49.734;8.490;2023-04-05T07:04:16;99856.16;;;9.19;43.91
45467;BME280;31212;49.734;8.490;2023-04-05T07:06:44;100008.16;;;10.07;44.62
45467;BME280;31212;49.734;8.490;2023-04-05T07:09:11;99815.53;;;9.43;43.09
45467;BME280;31212;49.734;8.490;2023-04-05T07:11:37;99957.41;;;11.39;42.34
45467;BME280;31212;49.734;8.490;2023-04-05T07:14:04;99883.66;;;12.35;40.64
45467;BME280;31212;49.734;8.490;2023-04-05T07:16:30;99776.31;;;12.16;40.02
45467;BME280;31212;49.734;8.490;2023-04-05T07:18:57;99724.97;;;12.27;38.92
45467;BME280;31212;49.734;8.490;2023-04-05T07:21:24;99713.50;;;12.92;38.29
45467;BME280;31212;49.734;8.490;2023-04-05T07:23:52;99717.25;;;12.77;38.44
45467;BME280;31212;49.734;8.490;2023-04-05T07:26:20;99784.00;;;13.33;38.73
45467;BME280;31212;49.734;8.490;2023-04-05T07:28:47;99723.22;;;14.17;36.85
45467;BME280;31212;49.734;8.490;2023-04-05T07:31:13;99556.06;;;13.06;36.16
45467;BME280;31212;49.734;8.490;2023-04-05T07:33:40;99717.34;;;13.20;37.66
45467;BME280;31212;49.734;8.490;2023-04-05T07:36:08;99686.88;;;14.08;36.25
45467;BME280;31212;49.734;8.490;2023-04-05T07:38:34;99835.97;;;11.52;40.71
45467;BME280;31212;49.734;8.490;2023-04-05T07:41:02;99727.41;;;11.74;38.86
45467;BME280;31212;49.734;8.490;2023-04-05T07:43:28;99909.72;;;13.54;38.92
45467;BME280;31212;49.734;8.490;2023-04-05T07:46:00;99769.41;;;14.90;36.04
45467;BME280;31212;49.734;8.490;2023-04-05T07:48:27;99810.28;;;14.93;36.26
45467;BME280;31212;49.734;8.490;2023-04-05T07:50:53;99719.44;;;15.97;34.76
45467;BME280;31212;49.734;8.490;2023-04-05T07:53:20;99561.25;;;14.55;34.38
45467;BME280;31212;49.734;8.490;2023-04-05T07:55:48;99642.53;;;16.55;33.26
45467;BME280;31212;49.734;8.490;2023-04-05T07:58:16;99520.38;;;16.00;32.42
45467;BME280;31212;49.734;8.490;2023-04-05T08:00:43;99448.66;;;13.32;33.99
45467;BME280;31212;49.734;8.490;2023-04-05T08:03:09;99520.47;;;13.05;35.22
45467;BME280;31212;49.734;8.490;2023-04-05T08:05:36;99568.03;;;12.71;35.79
45467;BME280;31212;49.734;8.490;2023-04-05T08:08:02;99666.50;;;12.50;36.59
45467;BME280;31212;49.734;8.490;2023-04-05T08:10:29;99739.09;;;15.49;34.85
45467;BME280;31212;49.734;8.490;2023-04-05T08:12:55;99613.81;;;15.68;32.84
45467;BME280;31212;49.734;8.490;2023-04-05T08:15:23;99330.13;;;14.40;31.89
45467;BME280;31212;49.734;8.490;2023-04-05T08:17:50;99251.94;;;11.56;33.51
45467;BME280;31212;49.734;8.490;2023-04-05T08:20:17;99582.31;;;12.51;35.63
45467;BME280;31212;49.734;8.490;2023-04-05T08:22:43;99530.81;;;15.17;32.27
45467;BME280;31212;49.734;8.490;2023-04-05T08:25:10;99561.34;;;16.01;31.82
45467;BME280;31212;49.734;8.490;2023-04-05T08:27:36;99361.66;;;14.63;30.65
45467;BME280;31212;49.734;8.490;2023-04-05T08:30:04;99393.34;;;14.20;31.73
45467;BME280;31212;49.734;8.490;2023-04-05T08:32:32;99535.25;;;15.43;31.76
45467;BME280;31212;49.734;8.490;2023-04-05T08:34:59;99392.19;;;14.91;30.88
45467;BME280;31212;49.734;8.490;2023-04-05T08:37:25;99277.63;;;15.04;29.40
45467;BME280;31212;49.734;8.490;2023-04-05T08:39:52;99320.78;;;15.93;29.02
45467;BME280;31212;49.734;8.490;2023-04-05T08:42:25;99375.16;;;16.58;28.81
45467;BME280;31212;49.734;8.490;2023-04-05T08:44:56;99336.59;;;15.90;28.82
45467;BME280;31212;49.734;8.490;2023-04-05T08:47:22;99431.84;;;17.28;28.56
45467;BME280;31212;49.734;8.490;2023-04-05T08:49:51;99328.47;;;14.94;29.60
45467;BME280;31212;49.734;8.490;2023-04-05T08:52:17;99394.22;;;16.38;28.54
45467;BME280;31212;49.734;8.490;2023-04-05T08:54:44;99317.75;;;15.79;28.70
45467;BME280;31212;49.734;8.490;2023-04-05T08:57:11;99379.81;;;14.96;29.92
45467;BME280;31212;49.734;8.490;2023-04-05T08:59:40;99451.97;;;15.84;29.55
45467;BME280;31212;49.734;8.490;2023-04-05T09:02:12;99327.00;;;16.14;27.72
45467;BME280;31212;49.734;8.490;2023-04-05T09:04:42;99244.81;;;17.26;26.54
45467;BME280;31212;49.734;8.490;2023-04-05T09:07:12;99271.38;;;16.54;27.15
45467;BME280;31212;49.734;8.490;2023-04-05T09:09:41;99144.63;;;15.44;27.05
45467;BME280;31212;49.734;8.490;2023-04-05T09:12:10;99071.97;;;14.56;27.24
45467;BME280;31212;49.734;8.490;2023-04-05T09:14:37;99281.31;;;16.88;26.84
45467;BME280;31212;49.734;8.490;2023-04-05T09:17:05;99305.69;;;14.42;28.91
45467;BME280;31212;49.734;8.490;2023-04-05T09:19:32;99354.66;;;16.45;27.66
45467;BME280;31212;49.734;8.490;2023-04-05T09:22:00;99392.59;;;15.86;28.11
45467;BME280;31212;49.734;8.490;2023-04-05T09:24:35;99338.13;;;16.89;26.65
45467;BME280;31212;49.734;8.490;2023-04-05T09:27:06;99343.16;;;15.52;28.52
45467;BME280;31212;49.734;8.490;2023-04-05T09:29:33;99353.81;;;17.54;26.64
45467;BME280;31212;49.734;8.490;2023-04-05T09:32:03;99309.16;;;16.70;26.94
45467;BME280;31212;49.734;8.490;2023-04-05T09:34:31;98994.59;;;15.69;24.98
45467;BME280;31212;49.734;8.490;2023-04-05T09:36:58;99257.16;;;15.42;27.71
45467;BME280;31212;49.734;8.490;2023-04-05T09:39:29;99443.72;;;17.15;27.33
45467;BME280;31212;49.734;8.490;2023-04-05T09:42:05;99129.78;;;15.68;25.66
45467;BME280;31212;49.734;8.490;2023-04-05T09:44:53;99280.66;;;18.26;24.85
45467;BME280;31212;49.734;8.490;2023-04-05T09:47:23;99138.69;;;17.14;25.03
45467;BME280;31212;49.734;8.490;2023-04-05T09:49:55;99045.53;;;16.25;25.75
45467;BME280;31212;49.734;8.490;2023-04-05T09:52:23;99416.09;;;17.51;26.93
45467;BME280;31212;49.734;8.490;2023-04-05T09:54:51;99233.25;;;18.10;25.04
45467;BME280;31212;49.734;8.490;2023-04-05T09:57:19;99066.78;;;15.28;26.25
45467;BME280;31212;49.734;8.490;2023-04-05T09:59:46;99202.78;;;18.06;24.58
45467;BME280;31212;49.734;8.490;2023-04-05T10:02:13;99315.22;;;19.45;24.06
45467;BME280;31212;49.734;8.490;2023-04-05T10:04:41;99158.19;;;18.41;24.17
45467;BME280;31212;49.734;8.490;2023-04-05T10:07:10;99114.94;;;18.65;23.28
45467;BME280;31212;49.734;8.490;2023-04-05T10:09:37;99023.81;;;15.80;24.93
45467;BME280;31212;49.734;8.490;2023-04-05T10:12:05;99249.91;;;15.74;27.04
45467;BME280;31212;49.734;8.490;2023-04-05T10:14:34;99311.22;;;17.89;25.23
45467;BME280;31212;49.734;8.490;2023-04-05T10:17:10;99294.06;;;19.29;23.98
45467;BME280;31212;49.734;8.490;2023-04-05T10:19:47;99043.91;;;17.97;23.49
45467;BME280;31212;49.734;8.490;2023-04-05T10:22:22;99144.31;;;17.83;23.94
45467;BME280;31212;49.734;8.490;2023-04-05T10:24:51;99177.22;;;16.49;25.48
45467;BME280;31212;49.734;8.490;2023-04-05T10:27:22;99191.56;;;16.83;25.33
45467;BME280;31212;49.734;8.490;2023-04-05T10:30:02;99154.47;;;16.92;25.03
45467;BME280;31212;49.734;8.490;2023-04-05T10:32:37;99369.75;;;17.29;26.42
45467;BME280;31212;49.734;8.490;2023-04-05T10:35:08;99284.94;;;19.19;24.01
45467;BME280;31212;49.734;8.490;2023-04-05T10:37:40;99294.63;;;18.45;25.12
45467;BME280;31212;49.734;8.490;2023-04-05T10:40:15;99274.78;;;17.41;25.41
45467;BME280;31212;49.734;8.490;2023-04-05T10:42:48;99290.56;;;15.85;27.14
45467;BME280;31212;49.734;8.490;2023-04-05T10:45:17;99230.28;;;17.59;25.27
45467;BME280;31212;49.734;8.490;2023-04-05T10:47:49;99248.69;;;18.72;23.78
45467;BME280;31212;49.734;8.490;2023-04-05T10:50:22;99182.59;;;19.48;22.80
45467;BME280;31212;49.734;8.490;2023-04-05T10:52:50;99143.56;;;19.72;22.08
45467;BME280;31212;49.734;8.490;2023-04-05T10:55:18;98881.44;;;15.43;24.35
45467;BME280;31212;49.734;8.490;2023-04-05T10:57:46;99238.47;;;16.69;25.48
45467;BME280;31212;49.734;8.490;2023-04-05T11:00:16;99253.22;;;19.40;23.17
45467;BME280;31212;49.734;8.490;2023-04-05T11:02:44;99128.72;;;19.38;22.15
45467;BME280;31212;49.734;8.490;2023-04-05T11:05:30;99053.41;;;19.19;21.64
45467;BME280;31212;49.734;8.490;2023-04-05T11:08:01;99123.13;;;19.28;22.29
45467;BME280;31212;49.734;8.490;2023-04-05T11:10:28;99284.91;;;20.21;22.85
45467;BME280;31212;49.734;8.490;2023-04-05T11:13:06;99226.19;;;20.03;22.87
45467;BME280;31212;49.734;8.490;2023-04-05T11:15:35;99041.22;;;18.33;22.76
45467;BME280;31212;49.734;8.490;2023-04-05T11:18:07;98863.31;;;16.40;22.52
45467;BME280;31212;49.734;8.490;2023-04-05T11:20:39;98926.56;;;15.26;24.14
45467;BME280;31212;49.734;8.490;2023-04-05T11:23:06;99213.81;;;17.55;24.22
45467;BME280;31212;49.734;8.490;2023-04-05T11:25:36;99356.75;;;17.88;25.32
45467;BME280;31212;49.734;8.490;2023-04-05T11:28:04;99129.16;;;15.85;25.15
45467;BME280;31212;49.734;8.490;2023-04-05T11:30:47;99207.59;;;16.33;25.00
45467;BME280;31212;49.734;8.490;2023-04-05T11:33:38;99112.28;;;16.78;24.08
45467;BME280;31212;49.734;8.490;2023-04-05T11:36:06;99007.88;;;16.07;24.23
45467;BME280;31212;49.734;8.490;2023-04-05T11:38:34;99327.34;;;16.05;26.28
45467;BME280;31212;49.734;8.490;2023-04-05T11:41:12;99248.63;;;15.37;26.19
45467;BME280;31212;49.734;8.490;2023-04-05T11:43:41;99218.94;;;15.38;25.93
45467;BME280;31212;49.734;8.490;2023-04-05T11:46:09;99321.03;;;15.86;26.70
45467;BME280;31212;49.734;8.490;2023-04-05T11:48:36;99231.88;;;15.43;26.34
45467;BME280;31212;49.734;8.490;2023-04-05T11:51:07;99203.72;;;15.50;25.98
45467;BME280;31212;49.734;8.490;2023-04-05T11:53:34;99219.41;;;14.19;27.59
45467;BME280;31212;49.734;8.490;2023-04-05T11:56:06;99087.94;;;14.21;26.15
45467;BME280;31212;49.734;8.490;2023-04-05T11:58:33;99085.50;;;14.15;26.03
45467;BME280;31212;49.734;8.490;2023-04-05T12:01:01;99157.81;;;14.67;25.59
45467;BME280;31212;49.734;8.490;2023-04-05T12:03:29;99257.78;;;14.99;26.69
45467;BME280;31212;49.734;8.490;2023-04-05T12:05:57;99373.75;;;15.50;27.22
45467;BME280;31212;49.734;8.490;2023-04-05T12:08:37;99221.09;;;15.02;26.20
45467;BME280;31212;49.734;8.490;2023-04-05T12:11:07;99111.03;;;14.59;25.93
45467;BME280;31212;49.734;8.490;2023-04-05T12:13:37;99185.72;;;14.38;26.78
45467;BME280;31212;49.734;8.490;2023-04-05T12:16:06;99233.84;;;14.01;27.53
45467;BME280;31212;49.734;8.490;2023-04-05T12:18:36;99188.44;;;13.46;27.53
45467;BME280;31212;49.734;8.490;2023-04-05T12:21:04;99159.19;;;13.37;27.15
45467;BME280;31212;49.734;8.490;2023-04-05T12:23:31;99303.66;;;13.61;28.43
45467;BME280;31212;49.734;8.490;2023-04-05T12:25:58;99242.41;;;13.76;27.54
45467;BME280;31212;49.734;8.490;2023-04-05T12:28:48;99193.78;;;14.30;26.52
45467;BME280;31212;49.734;8.490;2023-04-05T12:31:15;99356.22;;;14.98;27.30
45467;BME280;31212;49.734;8.490;2023-04-05T12:33:43;99285.59;;;15.26;26.27
45467;BME280;31212;49.734;8.490;2023-04-05T12:36:10;99188.25;;;14.12;26.54
45467;BME280;31212;49.734;8.490;2023-04-05T12:38:43;99239.59;;;14.12;27.14
45467;BME280;31212;49.734;8.490;2023-04-05T12:41:09;99053.16;;;13.66;26.27
45467;BME280;31212;49.734;8.490;2023-04-05T12:43:39;99127.06;;;14.48;25.75
45467;BME280;31212;49.734;8.490;2023-04-05T12:46:09;99439.69;;;15.33;28.03
45467;BME280;31212;49.734;8.490;2023-04-05T12:48:36;99182.09;;;14.70;26.39
45467;BME280;31212;49.734;8.490;2023-04-05T12:51:13;99126.56;;;14.37;25.94
45467;BME280;31212;49.734;8.490;2023-04-05T12:53:43;99108.25;;;14.11;26.05
45467;BME280;31212;49.734;8.490;2023-04-05T12:56:11;99149.97;;;14.40;26.26
45467;BME280;31212;49.734;8.490;2023-04-05T12:58:39;99156.63;;;13.65;26.92
45467;BME280;31212;49.734;8.490;2023-04-05T13:01:05;99245.31;;;13.65;28.03
45467;BME280;31212;49.734;8.490;2023-04-05T13:03:32;99217.31;;;13.72;27.44
45467;BME280;31212;49.734;8.490;2023-04-05T13:05:59;99180.41;;;13.54;27.49
45467;BME280;31212;49.734;8.490;2023-04-05T13:08:27;99250.16;;;14.07;27.45